KBOS

Logan International Airport

Airport
ICAO code
KBOS
IATA Code
BOS
Summary
ICAO Region
NAM
ICAO Territory
Location

East Boston , Massachusetts

Serving
Boston
Elevation
19 ft
Coordinates
42° 21' 55" N , 71° 0' 27" W
KCC
Airport BS
Bird Strike
Airport LOS
Parallel Runway Operation
Airport RE
Engineered Materials Arresting System
Metar
KBOS 150254Z 19006KT 10SM -RA BKN075 OVC090 09/07 A2972 RMK AO2 RAB03E12B28 SLP062 P0001 60001 T00940067 50000 $

Description

General Edward Lawrence Logan International Airport, also know as Boston Logan International Airport, is located in the East Boston neighbourhood of Boston, Massachusetts, United States.

Airport map

Aerial View

SKYbrary Partners:

Safety knowledge contributed by: